Time;durP1;ratioP1;P1;durP2;ratioP2;P2;SDS_P1;SDS_P2;PMS_P1;PMS_P2;Temp;Humidity;BMP_temperature;BMP_pressure;BME280_temperature;BME280_humidity;BME280_pressure;Samples;Min_cycle;Max_cycle;Signal;HPM_P1;HPM_P2
2022/06/15 00:00:40;;;;;;;;;;;18.50;63.30;;;;;;5106368;28;19922;-70
2022/06/15 00:03:05;;;;;;;;;;;18.50;63.30;;;;;;5099143;28;19975;-70
2022/06/15 00:05:31;;;;;;;;;;;18.40;63.60;;;;;;5105294;27;20052;-70
2022/06/15 00:07:57;;;;;;;;;;;18.40;63.60;;;;;;5102886;28;20030;-70
2022/06/15 00:10:22;;;;;;;;;;;18.40;63.60;;;;;;5105509;28;19915;-70
2022/06/15 00:12:48;;;;;;;;;;;18.40;63.60;;;;;;5101474;28;19911;-70
2022/06/15 00:15:14;;;;;;;;;;;18.30;63.80;;;;;;5106034;28;19927;-70
2022/06/15 00:17:39;;;;;;;;;;;18.30;63.80;;;;;;5096824;28;19912;-70
2022/06/15 00:20:05;;;;;;;;;;;18.30;63.80;;;;;;5103091;28;19922;-70
2022/06/15 00:22:31;;;;;;;;;;;18.30;63.90;;;;;;5100311;28;20371;-70
2022/06/15 00:24:56;;;;;;;;;;;18.20;64.00;;;;;;5102993;28;19958;-69
2022/06/15 00:27:22;;;;;;;;;;;18.20;64.00;;;;;;5103606;28;19912;-69
2022/06/15 00:29:47;;;;;;;;;;;18.10;64.00;;;;;;5102430;28;20620;-69
2022/06/15 00:32:13;;;;;;;;;;;18.10;64.10;;;;;;5103522;28;19956;-69
2022/06/15 00:34:38;;;;;;;;;;;18.10;64.20;;;;;;5096259;28;19922;-70
2022/06/15 00:37:05;;;;;;;;;;;18.10;64.20;;;;;;5104771;28;19969;-69
2022/06/15 00:39:32;;;;;;;;;;;18.00;64.00;;;;;;5099460;28;19922;-70
2022/06/15 00:41:58;;;;;;;;;;;18.00;64.20;;;;;;5106105;28;19920;-69
2022/06/15 00:44:24;;;;;;;;;;;18.00;64.40;;;;;;5100581;28;19927;-69
2022/06/15 00:46:51;;;;;;;;;;;18.00;64.30;;;;;;5105840;28;20362;-70
2022/06/15 00:49:18;;;;;;;;;;;18.00;64.60;;;;;;5101397;28;20025;-69
2022/06/15 00:51:46;;;;;;;;;;;17.90;64.20;;;;;;5106019;28;19924;-70
2022/06/15 00:54:12;;;;;;;;;;;17.90;64.50;;;;;;5099078;28;19916;-70
2022/06/15 00:56:38;;;;;;;;;;;17.90;64.70;;;;;;5104770;28;19912;-70
2022/06/15 00:59:12;;;;;;;;;;;17.90;64.70;;;;;;5098465;28;20398;-70
2022/06/15 01:01:39;;;;;;;;;;;17.80;64.80;;;;;;5105331;28;20007;-70
2022/06/15 01:04:05;;;;;;;;;;;17.80;64.70;;;;;;5101073;28;20387;-69
2022/06/15 01:06:49;;;;;;;;;;;17.80;64.80;;;;;;5103035;28;19915;-69
2022/06/15 01:09:25;;;;;;;;;;;17.80;64.90;;;;;;5100418;28;19923;-69
2022/06/15 01:11:51;;;;;;;;;;;17.70;64.80;;;;;;5105429;28;19912;-69
2022/06/15 01:14:35;;;;;;;;;;;17.70;65.00;;;;;;5100951;28;19918;-69
2022/06/15 01:17:07;;;;;;;;;;;17.70;65.20;;;;;;5103146;28;19918;-69
2022/06/15 01:19:33;;;;;;;;;;;17.60;65.30;;;;;;5098340;28;21677;-69
2022/06/15 01:22:19;;;;;;;;;;;17.60;65.20;;;;;;5101468;28;20014;-69
2022/06/15 01:25:03;;;;;;;;;;;17.60;65.20;;;;;;5097881;28;20376;-69
2022/06/15 01:27:41;;;;;;;;;;;17.60;65.20;;;;;;5103512;28;19912;-69
2022/06/15 01:30:26;;;;;;;;;;;17.50;65.30;;;;;;5095910;28;19916;-69
2022/06/15 01:33:10;;;;;;;;;;;17.50;65.40;;;;;;5104754;28;20108;-69
2022/06/15 01:35:50;;;;;;;;;;;17.50;65.60;;;;;;5100367;28;19923;-69
2022/06/15 01:38:25;;;;;;;;;;;17.50;65.70;;;;;;5099648;28;19994;-69
2022/06/15 01:41:09;;;;;;;;;;;17.40;65.80;;;;;;5100768;28;19912;-69
2022/06/15 01:43:41;;;;;;;;;;;17.40;65.80;;;;;;5104446;28;20329;-69
2022/06/15 01:46:07;;;;;;;;;;;17.40;65.70;;;;;;5100027;28;20032;-70
2022/06/15 01:48:34;;;;;;;;;;;17.30;65.70;;;;;;5105132;28;19923;-69
2022/06/15 01:51:03;;;;;;;;;;;17.30;65.80;;;;;;5100608;28;19993;-69
2022/06/15 01:53:31;;;;;;;;;;;17.30;65.90;;;;;;5102153;28;19915;-70
2022/06/15 01:56:02;;;;;;;;;;;17.30;66.00;;;;;;5099348;28;20434;-69
2022/06/15 01:58:29;;;;;;;;;;;17.20;66.10;;;;;;5104580;28;19922;-69
2022/06/15 02:00:58;;;;;;;;;;;17.20;66.20;;;;;;5101299;28;20276;-70
2022/06/15 02:03:34;;;;;;;;;;;17.20;66.10;;;;;;5104250;28;19939;-69
2022/06/15 02:06:14;;;;;;;;;;;17.20;66.50;;;;;;5103325;28;19912;-69
2022/06/15 02:08:50;;;;;;;;;;;17.10;66.30;;;;;;5099635;28;19980;-69
2022/06/15 02:11:19;;;;;;;;;;;17.10;66.30;;;;;;5102157;28;19933;-70
2022/06/15 02:13:47;;;;;;;;;;;17.10;66.40;;;;;;5102910;28;20719;-69
2022/06/15 02:16:19;;;;;;;;;;;17.10;66.60;;;;;;5103939;28;19964;-69
2022/06/15 02:18:46;;;;;;;;;;;17.10;66.70;;;;;;5101882;28;19915;-69
2022/06/15 02:21:14;;;;;;;;;;;17.00;66.60;;;;;;5097748;28;19947;-69
2022/06/15 02:23:40;;;;;;;;;;;17.00;66.80;;;;;;5101171;28;20037;-69
2022/06/15 02:26:06;;;;;;;;;;;17.00;66.90;;;;;;5101800;28;20535;-69
2022/06/15 02:28:34;;;;;;;;;;;17.00;66.90;;;;;;5100172;28;19993;-69
2022/06/15 02:31:00;;;;;;;;;;;16.90;66.60;;;;;;5099845;28;20613;-69
2022/06/15 02:33:25;;;;;;;;;;;16.90;66.90;;;;;;5100773;28;19961;-69
2022/06/15 02:35:51;;;;;;;;;;;16.90;66.70;;;;;;5100519;28;19990;-70
2022/06/15 02:38:17;;;;;;;;;;;16.80;67.00;;;;;;5100262;28;20364;-69
2022/06/15 02:40:42;;;;;;;;;;;16.90;67.00;;;;;;5104266;28;19916;-69
2022/06/15 02:43:08;;;;;;;;;;;16.80;67.70;;;;;;5097629;28;19920;-69
2022/06/15 02:45:36;;;;;;;;;;;16.80;67.20;;;;;;5102669;28;20010;-70
2022/06/15 02:48:03;;;;;;;;;;;16.80;67.40;;;;;;5098420;28;20261;-69
2022/06/15 02:50:31;;;;;;;;;;;16.80;67.50;;;;;;5106651;28;19923;-69
2022/06/15 02:53:03;;;;;;;;;;;16.70;67.00;;;;;;5104689;28;19916;-69
2022/06/15 02:55:29;;;;;;;;;;;16.70;67.50;;;;;;5102488;28;20431;-69
2022/06/15 02:58:12;;;;;;;;;;;16.70;67.50;;;;;;5106543;28;19915;-69
2022/06/15 03:00:38;;;;;;;;;;;16.70;67.60;;;;;;5102724;28;19928;-69
2022/06/15 03:03:03;;;;;;;;;;;16.60;67.20;;;;;;5105379;28;19920;-69
2022/06/15 03:05:29;;;;;;;;;;;16.60;67.40;;;;;;5103267;28;19916;-69
2022/06/15 03:07:54;;;;;;;;;;;16.60;67.40;;;;;;5108312;28;19998;-69
2022/06/15 03:10:20;;;;;;;;;;;16.60;67.70;;;;;;5103020;28;19922;-69
2022/06/15 03:12:46;;;;;;;;;;;16.50;67.50;;;;;;5107138;28;19911;-69
2022/06/15 03:15:11;;;;;;;;;;;16.50;67.70;;;;;;5101410;28;19915;-69
2022/06/15 03:17:37;;;;;;;;;;;16.50;67.70;;;;;;5107404;28;19959;-69
2022/06/15 03:20:03;;;;;;;;;;;16.50;68.50;;;;;;5099958;28;19915;-69
2022/06/15 03:22:28;;;;;;;;;;;16.50;68.10;;;;;;5102085;28;20596;-70
2022/06/15 03:24:54;;;;;;;;;;;16.50;67.90;;;;;;5117002;27;19951;-69
2022/06/15 03:27:19;;;;;;;;;;;16.50;68.10;;;;;;5107149;28;20019;-69
2022/06/15 03:29:45;;;;;;;;;;;16.40;68.10;;;;;;5101252;28;19918;-69
2022/06/15 03:32:15;;;;;;;;;;;16.40;68.30;;;;;;5107386;28;19991;-69
2022/06/15 03:34:41;;;;;;;;;;;16.40;68.40;;;;;;5100061;28;19919;-69
2022/06/15 03:37:07;;;;;;;;;;;16.40;68.30;;;;;;5106782;28;19916;-69
2022/06/15 03:39:32;;;;;;;;;;;16.30;68.30;;;;;;5106928;28;19915;-69
2022/06/15 03:42:13;;;;;;;;;;;16.30;68.40;;;;;;5102826;28;19923;-69
2022/06/15 03:44:39;;;;;;;;;;;16.30;69.00;;;;;;5107386;28;20314;-69
2022/06/15 03:47:06;;;;;;;;;;;16.30;69.40;;;;;;5098650;28;19916;-69
2022/06/15 03:49:31;;;;;;;;;;;16.20;68.60;;;;;;5105834;28;19912;-69
2022/06/15 03:51:57;;;;;;;;;;;16.30;68.60;;;;;;5099875;28;19926;-69
2022/06/15 03:54:22;;;;;;;;;;;16.30;68.50;;;;;;5100904;28;19912;-69
2022/06/15 03:56:48;;;;;;;;;;;16.20;68.90;;;;;;5098438;28;19915;-69
2022/06/15 03:59:14;;;;;;;;;;;16.20;68.60;;;;;;5106244;28;19915;-69
2022/06/15 04:01:40;;;;;;;;;;;16.20;68.80;;;;;;5092943;28;19919;-69
2022/06/15 04:04:05;;;;;;;;;;;16.20;68.80;;;;;;5104532;28;20376;-69
2022/06/15 04:06:31;;;;;;;;;;;16.20;69.70;;;;;;5100723;28;19991;-69
2022/06/15 04:08:57;;;;;;;;;;;16.20;68.90;;;;;;5106038;28;19916;-69
2022/06/15 04:14:06;;;;;;;;;;;16.10;68.90;;;;;;5106728;28;19919;-69
2022/06/15 04:16:32;;;;;;;;;;;16.10;69.00;;;;;;5099213;28;19916;-69
2022/06/15 04:19:02;;;;;;;;;;;16.10;68.90;;;;;;5122404;27;19911;-69
2022/06/15 04:21:28;;;;;;;;;;;16.10;69.20;;;;;;5101099;28;19916;-69
2022/06/15 04:23:53;;;;;;;;;;;16.10;69.20;;;;;;5104394;28;19912;-69
2022/06/15 04:26:19;;;;;;;;;;;16.10;69.20;;;;;;5105808;28;20662;-69
2022/06/15 04:28:44;;;;;;;;;;;16.10;69.30;;;;;;5101782;28;19919;-69
2022/06/15 04:31:10;;;;;;;;;;;16.10;69.70;;;;;;5104773;28;19922;-69
2022/06/15 04:33:35;;;;;;;;;;;16.00;69.20;;;;;;5098880;28;20444;-69
2022/06/15 04:36:01;;;;;;;;;;;16.00;69.30;;;;;;5105273;28;19915;-69
2022/06/15 04:38:27;;;;;;;;;;;16.00;69.40;;;;;;5099387;28;19927;-69
2022/06/15 04:40:53;;;;;;;;;;;16.10;69.60;;;;;;5105650;28;20292;-69
2022/06/15 04:43:19;;;;;;;;;;;16.00;69.50;;;;;;5102172;28;19960;-69
2022/06/15 04:45:45;;;;;;;;;;;16.00;69.70;;;;;;5105300;28;19991;-69
2022/06/15 04:48:10;;;;;;;;;;;16.00;69.60;;;;;;5102948;27;20364;-69
2022/06/15 04:50:36;;;;;;;;;;;16.00;69.50;;;;;;5105046;28;19916;-69
2022/06/15 04:53:02;;;;;;;;;;;16.00;69.60;;;;;;5097731;28;19916;-69
2022/06/15 04:55:28;;;;;;;;;;;16.00;69.70;;;;;;5103757;28;19956;-69
2022/06/15 04:57:59;;;;;;;;;;;16.00;69.80;;;;;;5100973;28;20893;-69
2022/06/15 05:00:25;;;;;;;;;;;16.00;69.80;;;;;;5103631;28;19916;-69
2022/06/15 05:02:51;;;;;;;;;;;16.00;69.80;;;;;;5103867;28;19916;-69
2022/06/15 05:05:17;;;;;;;;;;;16.00;69.80;;;;;;5100773;28;19916;-69
2022/06/15 05:07:43;;;;;;;;;;;16.00;69.90;;;;;;5104527;28;20653;-67
2022/06/15 05:10:19;;;;;;;;;;;16.00;69.80;;;;;;5098898;28;19961;-69
2022/06/15 05:12:45;;;;;;;;;;;16.00;69.80;;;;;;5105162;28;19915;-69
2022/06/15 05:15:13;;;;;;;;;;;16.00;69.80;;;;;;5100151;28;19912;-69
2022/06/15 05:17:39;;;;;;;;;;;16.00;70.00;;;;;;5104177;28;19916;-69
2022/06/15 05:20:05;;;;;;;;;;;16.00;70.00;;;;;;5098710;28;19920;-69
2022/06/15 05:22:31;;;;;;;;;;;16.00;70.80;;;;;;5103682;28;19938;-69
2022/06/15 05:24:56;;;;;;;;;;;16.00;70.00;;;;;;5099551;28;19919;-69
2022/06/15 05:27:22;;;;;;;;;;;16.00;70.00;;;;;;5104481;28;20035;-69
2022/06/15 05:29:47;;;;;;;;;;;16.00;70.10;;;;;;5100370;28;19967;-69
2022/06/15 05:32:13;;;;;;;;;;;16.00;70.00;;;;;;5104744;28;20411;-68
2022/06/15 05:34:38;;;;;;;;;;;16.00;70.10;;;;;;5098654;28;19916;-70
2022/06/15 05:37:04;;;;;;;;;;;16.00;70.00;;;;;;5104366;28;19927;-69
2022/06/15 05:39:29;;;;;;;;;;;16.00;70.00;;;;;;5096948;28;20041;-69
2022/06/15 05:41:55;;;;;;;;;;;16.00;70.10;;;;;;5098677;28;19919;-69
2022/06/15 05:44:27;;;;;;;;;;;16.00;70.10;;;;;;5099617;28;19916;-69
2022/06/15 05:46:56;;;;;;;;;;;16.00;70.10;;;;;;5101880;28;20030;-69
2022/06/15 05:49:22;;;;;;;;;;;16.00;70.00;;;;;;5104874;28;20007;-69
2022/06/15 05:51:47;;;;;;;;;;;16.00;70.10;;;;;;5098519;28;20406;-69
2022/06/15 05:54:13;;;;;;;;;;;16.10;70.10;;;;;;5103251;28;19915;-69
2022/06/15 05:56:38;;;;;;;;;;;16.10;70.10;;;;;;5096185;28;19915;-69
2022/06/15 05:59:04;;;;;;;;;;;16.10;70.10;;;;;;5100762;28;20421;-69
2022/06/15 06:01:35;;;;;;;;;;;16.10;70.10;;;;;;5115426;28;19969;-69
2022/06/15 06:04:00;;;;;;;;;;;16.10;70.00;;;;;;5104063;28;19918;-69
2022/06/15 06:06:28;;;;;;;;;;;16.10;70.10;;;;;;5094952;28;19916;-69
2022/06/15 06:08:53;;;;;;;;;;;16.10;70.10;;;;;;5105167;28;19911;-69
2022/06/15 06:11:19;;;;;;;;;;;16.20;70.20;;;;;;5100459;28;19915;-69
2022/06/15 06:13:45;;;;;;;;;;;16.10;70.10;;;;;;5104401;28;19926;-69
2022/06/15 06:16:10;;;;;;;;;;;16.10;70.20;;;;;;5100345;28;19919;-69
2022/06/15 06:18:36;;;;;;;;;;;16.10;70.20;;;;;;5104552;28;20007;-69
2022/06/15 06:21:01;;;;;;;;;;;16.10;70.20;;;;;;5099814;28;19969;-70
2022/06/15 06:23:27;;;;;;;;;;;16.20;70.30;;;;;;5106896;28;19926;-69
2022/06/15 06:25:53;;;;;;;;;;;16.20;70.20;;;;;;5108089;28;19916;-69
2022/06/15 06:28:27;;;;;;;;;;;16.20;70.30;;;;;;5102822;28;19922;-69
2022/06/15 06:30:54;;;;;;;;;;;16.20;70.10;;;;;;5106503;28;19923;-69
2022/06/15 06:33:19;;;;;;;;;;;16.20;70.20;;;;;;5097854;28;19916;-69
2022/06/15 06:35:45;;;;;;;;;;;16.20;70.30;;;;;;5107951;28;20291;-69
2022/06/15 06:38:11;;;;;;;;;;;16.20;70.10;;;;;;5102458;28;20320;-69
2022/06/15 06:40:36;;;;;;;;;;;16.20;70.10;;;;;;5107851;28;20014;-69
2022/06/15 06:43:02;;;;;;;;;;;16.30;70.10;;;;;;5099934;28;20441;-70
2022/06/15 06:45:27;;;;;;;;;;;16.30;70.10;;;;;;5107641;28;19966;-69
2022/06/15 06:47:53;;;;;;;;;;;16.30;70.00;;;;;;5101610;28;19968;-69
2022/06/15 06:50:19;;;;;;;;;;;16.30;70.10;;;;;;5108186;28;19911;-70
2022/06/15 06:52:44;;;;;;;;;;;16.30;69.80;;;;;;5101482;28;19927;-69
2022/06/15 06:55:10;;;;;;;;;;;16.30;69.80;;;;;;5108004;28;20576;-69
2022/06/15 06:57:37;;;;;;;;;;;16.40;69.80;;;;;;5100919;28;21345;-69
2022/06/15 07:00:03;;;;;;;;;;;16.40;69.80;;;;;;5106539;28;19961;-70
2022/06/15 07:02:29;;;;;;;;;;;16.40;69.70;;;;;;5105187;28;19957;-69
2022/06/15 07:04:54;;;;;;;;;;;16.40;69.70;;;;;;5105273;28;20602;-69
2022/06/15 07:07:20;;;;;;;;;;;16.40;69.60;;;;;;5106860;28;19912;-69
2022/06/15 07:09:46;;;;;;;;;;;16.50;69.60;;;;;;5103555;28;19916;-69
2022/06/15 07:12:11;;;;;;;;;;;16.50;69.60;;;;;;5107380;28;19919;-69
2022/06/15 07:14:37;;;;;;;;;;;16.50;69.60;;;;;;5100040;28;19916;-70
2022/06/15 07:17:02;;;;;;;;;;;16.50;69.50;;;;;;5106574;28;19947;-69
2022/06/15 07:19:28;;;;;;;;;;;16.50;69.50;;;;;;5101124;28;20379;-69
2022/06/15 07:21:53;;;;;;;;;;;16.50;69.50;;;;;;5105371;28;20100;-69
2022/06/15 07:24:19;;;;;;;;;;;16.50;69.40;;;;;;5103465;28;20042;-69
2022/06/15 07:26:47;;;;;;;;;;;16.60;69.60;;;;;;5106852;28;19919;-69
2022/06/15 07:29:14;;;;;;;;;;;16.60;69.30;;;;;;5102717;28;20635;-70
2022/06/15 07:31:41;;;;;;;;;;;16.60;69.30;;;;;;5099968;28;20372;-69
2022/06/15 07:34:08;;;;;;;;;;;16.60;69.20;;;;;;5101065;28;19923;-69
2022/06/15 07:36:34;;;;;;;;;;;16.60;69.00;;;;;;5106160;28;19916;-69
2022/06/15 07:39:00;;;;;;;;;;;16.70;69.20;;;;;;5102434;28;19919;-70
2022/06/15 07:41:26;;;;;;;;;;;16.70;69.00;;;;;;5100806;28;19912;-69
2022/06/15 07:43:52;;;;;;;;;;;16.70;69.00;;;;;;5107028;28;19926;-70
2022/06/15 07:46:18;;;;;;;;;;;16.70;69.00;;;;;;5100359;28;20730;-69
2022/06/15 07:51:31;;;;;;;;;;;16.80;69.20;;;;;;5100090;28;19926;-69
2022/06/15 07:53:57;;;;;;;;;;;16.80;68.70;;;;;;5106678;28;19955;-69
2022/06/15 07:56:23;;;;;;;;;;;16.80;68.70;;;;;;5100874;28;19993;-69
2022/06/15 07:58:49;;;;;;;;;;;16.90;68.70;;;;;;5105434;28;20719;-69
2022/06/15 08:01:14;;;;;;;;;;;16.90;68.60;;;;;;5100561;28;20029;-69
2022/06/15 08:03:40;;;;;;;;;;;16.90;68.60;;;;;;5106963;28;19914;-69
2022/06/15 08:06:05;;;;;;;;;;;16.90;68.40;;;;;;5100740;28;19912;-70
2022/06/15 08:08:31;;;;;;;;;;;16.90;68.40;;;;;;5105815;28;19907;-69
2022/06/15 08:10:57;;;;;;;;;;;17.00;68.30;;;;;;5102666;28;19947;-70
2022/06/15 08:13:22;;;;;;;;;;;17.00;68.30;;;;;;5106544;28;20392;-70
2022/06/15 08:15:48;;;;;;;;;;;17.00;68.30;;;;;;5101164;28;19916;-70
2022/06/15 08:18:16;;;;;;;;;;;17.10;68.30;;;;;;5106399;28;19915;-69
2022/06/15 08:20:43;;;;;;;;;;;17.10;68.20;;;;;;5097389;28;20307;-69
2022/06/15 08:23:11;;;;;;;;;;;17.10;68.00;;;;;;5103337;28;19926;-69
2022/06/15 08:25:39;;;;;;;;;;;17.10;67.90;;;;;;5106020;28;19980;-70
2022/06/15 08:28:05;;;;;;;;;;;17.20;68.10;;;;;;5102587;28;19969;-69
2022/06/15 08:30:31;;;;;;;;;;;17.20;67.60;;;;;;5105859;27;19912;-70
2022/06/15 08:32:56;;;;;;;;;;;17.30;67.80;;;;;;5102194;28;20360;-69
2022/06/15 08:35:22;;;;;;;;;;;17.30;67.60;;;;;;5106141;28;20372;-70
2022/06/15 08:37:48;;;;;;;;;;;17.30;67.40;;;;;;5100245;28;20372;-70
2022/06/15 08:40:14;;;;;;;;;;;17.30;67.30;;;;;;5103631;28;19927;-69
2022/06/15 08:42:49;;;;;;;;;;;17.40;67.20;;;;;;5098906;28;19988;-70
2022/06/15 08:45:33;;;;;;;;;;;17.40;67.40;;;;;;5101881;28;19955;-69
2022/06/15 08:48:01;;;;;;;;;;;17.40;67.00;;;;;;5095246;28;20399;-69
2022/06/15 08:50:30;;;;;;;;;;;17.50;67.00;;;;;;5104903;28;19923;-70
2022/06/15 08:53:02;;;;;;;;;;;17.60;67.30;;;;;;5097616;28;19977;-70
2022/06/15 08:55:36;;;;;;;;;;;17.50;66.90;;;;;;5103243;28;19951;-70
2022/06/15 08:58:08;;;;;;;;;;;17.60;67.10;;;;;;5101883;28;19923;-69
2022/06/15 09:00:35;;;;;;;;;;;17.70;67.00;;;;;;5105705;28;19912;-70
2022/06/15 09:03:21;;;;;;;;;;;17.70;66.80;;;;;;5099148;28;19969;-70
2022/06/15 09:05:59;;;;;;;;;;;17.80;66.60;;;;;;5105466;28;19912;-70
2022/06/15 09:08:43;;;;;;;;;;;17.80;66.50;;;;;;5100950;28;19941;-70
2022/06/15 09:11:27;;;;;;;;;;;17.90;66.50;;;;;;5104734;28;19939;-70
2022/06/15 09:13:58;;;;;;;;;;;17.90;66.70;;;;;;5098697;28;19945;-69
2022/06/15 09:16:28;;;;;;;;;;;17.90;66.30;;;;;;5102574;28;19961;-70
2022/06/15 09:19:02;;;;;;;;;;;18.00;66.50;;;;;;5099598;28;19960;-70
2022/06/15 09:21:49;;;;;;;;;;;18.10;66.70;;;;;;5095715;28;20536;-70
2022/06/15 09:24:17;;;;;;;;;;;18.10;66.60;;;;;;5100387;28;19965;-70
2022/06/15 09:26:49;;;;;;;;;;;18.20;66.40;;;;;;5104315;28;20087;-70
2022/06/15 09:29:21;;;;;;;;;;;18.20;66.30;;;;;;5097902;28;19939;-70
2022/06/15 09:32:08;;;;;;;;;;;18.30;66.30;;;;;;5101972;28;19918;-70
2022/06/15 09:34:33;;;;;;;;;;;18.30;66.30;;;;;;5097706;28;19943;-70
2022/06/15 09:36:59;;;;;;;;;;;18.40;66.30;;;;;;5100308;28;19955;-70
2022/06/15 09:39:25;;;;;;;;;;;18.50;66.00;;;;;;5097644;28;19927;-70
2022/06/15 09:42:00;;;;;;;;;;;18.50;66.20;;;;;;5104650;28;19972;-70
2022/06/15 09:44:44;;;;;;;;;;;18.60;66.00;;;;;;5102652;28;19915;-70
2022/06/15 09:47:15;;;;;;;;;;;18.70;66.10;;;;;;5104202;28;20569;-70
2022/06/15 09:49:41;;;;;;;;;;;18.70;65.70;;;;;;5100697;28;19923;-70
2022/06/15 09:52:07;;;;;;;;;;;18.80;65.70;;;;;;5104314;28;19916;-70
2022/06/15 09:54:51;;;;;;;;;;;18.80;65.80;;;;;;5101323;28;20459;-70
2022/06/15 09:57:17;;;;;;;;;;;18.90;65.70;;;;;;5102011;28;20015;-68
2022/06/15 09:59:43;;;;;;;;;;;19.00;65.40;;;;;;5101138;28;19924;-70
2022/06/15 10:02:16;;;;;;;;;;;19.00;65.60;;;;;;5102737;28;19945;-71
2022/06/15 10:04:43;;;;;;;;;;;19.10;65.60;;;;;;5093088;28;19938;-70
2022/06/15 10:07:41;;;;;;;;;;;19.20;65.30;;;;;;5099701;28;19957;-70
2022/06/15 10:10:17;;;;;;;;;;;19.20;65.40;;;;;;5060426;28;20373;-70
2022/06/15 10:12:57;;;;;;;;;;;19.40;65.30;;;;;;5098811;28;19994;-71
2022/06/15 10:15:32;;;;;;;;;;;19.40;65.20;;;;;;5100679;28;19949;-71
2022/06/15 10:18:00;;;;;;;;;;;19.50;65.40;;;;;;5101613;28;19911;-71
2022/06/15 10:20:31;;;;;;;;;;;19.60;65.20;;;;;;5097627;28;20227;-72
2022/06/15 10:22:58;;;;;;;;;;;19.70;65.20;;;;;;5100091;28;20462;-71
2022/06/15 10:25:25;;;;;;;;;;;19.80;65.40;;;;;;5100064;28;19907;-71
2022/06/15 10:28:04;;;;;;;;;;;19.90;65.90;;;;;;5098301;28;19912;-71
2022/06/15 10:30:29;;;;;;;;;;;20.00;65.80;;;;;;5102578;28;19918;-71
2022/06/15 10:33:00;;;;;;;;;;;20.10;65.70;;;;;;5101335;28;19911;-71
2022/06/15 10:35:28;;;;;;;;;;;20.20;65.80;;;;;;5102969;28;19922;-71
2022/06/15 10:38:01;;;;;;;;;;;20.20;66.00;;;;;;5099405;28;19924;-71
2022/06/15 10:40:29;;;;;;;;;;;20.40;65.60;;;;;;5104499;28;19920;-71
2022/06/15 10:42:59;;;;;;;;;;;20.50;65.70;;;;;;5099024;28;19928;-72
2022/06/15 10:45:33;;;;;;;;;;;20.60;65.60;;;;;;5103378;28;19916;-71
2022/06/15 10:48:20;;;;;;;;;;;20.70;65.70;;;;;;5099369;28;19939;-71
2022/06/15 10:51:06;;;;;;;;;;;20.80;65.80;;;;;;5104517;28;19926;-72
2022/06/15 10:53:35;;;;;;;;;;;21.00;65.60;;;;;;5098205;28;20518;-71
2022/06/15 11:04:25;;;;;;;;;;;21.60;65.40;;;;;;5099670;28;19976;-71
2022/06/15 11:06:53;;;;;;;;;;;21.70;65.00;;;;;;5103920;28;20087;-72
2022/06/15 11:09:18;;;;;;;;;;;21.80;64.90;;;;;;5097061;28;20179;-71
2022/06/15 11:11:44;;;;;;;;;;;21.90;65.10;;;;;;5106835;28;19915;-72
2022/06/15 11:14:15;;;;;;;;;;;22.10;65.20;;;;;;5101669;28;19915;-72
2022/06/15 11:19:26;;;;;;;;;;;22.40;64.90;;;;;;5102183;28;19964;-72
2022/06/15 11:21:57;;;;;;;;;;;22.50;64.50;;;;;;5104802;28;20391;-72
2022/06/15 11:24:27;;;;;;;;;;;22.60;65.00;;;;;;5101337;28;20516;-72
2022/06/15 11:27:05;;;;;;;;;;;22.70;64.80;;;;;;5105875;28;19923;-72
2022/06/15 11:29:35;;;;;;;;;;;22.80;64.70;;;;;;5101611;28;19923;-72
2022/06/15 11:32:16;;;;;;;;;;;22.90;64.50;;;;;;5107011;28;19911;-72
2022/06/15 11:35:02;;;;;;;;;;;23.00;64.50;;;;;;5102901;28;19974;-72
2022/06/15 11:37:51;;;;;;;;;;;23.10;64.60;;;;;;5097544;28;19911;-72
2022/06/15 11:40:35;;;;;;;;;;;23.20;64.10;;;;;;5074696;28;19916;-72
2022/06/15 11:43:02;;;;;;;;;;;23.30;64.00;;;;;;5098124;28;19920;-72
2022/06/15 11:45:48;;;;;;;;;;;23.40;64.30;;;;;;5100619;28;19916;-72
2022/06/15 11:48:22;;;;;;;;;;;23.50;64.20;;;;;;5098750;28;19911;-72
2022/06/15 11:50:52;;;;;;;;;;;23.60;64.00;;;;;;5103710;28;19920;-72
2022/06/15 11:53:17;;;;;;;;;;;23.60;64.20;;;;;;5106358;28;19937;-72
2022/06/15 11:55:52;;;;;;;;;;;23.70;63.60;;;;;;5102833;28;20367;-73
2022/06/15 11:58:36;;;;;;;;;;;23.80;63.70;;;;;;5105995;28;19916;-73
2022/06/15 12:01:04;;;;;;;;;;;23.90;63.40;;;;;;5100670;28;19915;-73
2022/06/15 12:03:30;;;;;;;;;;;24.00;63.30;;;;;;5103980;28;19916;-73
2022/06/15 12:06:04;;;;;;;;;;;24.10;63.30;;;;;;5102119;28;19912;-73
2022/06/15 12:08:30;;;;;;;;;;;24.20;63.30;;;;;;5105297;28;19912;-73
2022/06/15 12:12:37;;;;;;;;;;;24.20;63.30;;;;;;5098234;28;19915;-73
2022/06/15 12:13:58;;;;;;;;;;;24.30;63.30;;;;;;5105232;28;19912;-73
2022/06/15 12:16:27;;;;;;;;;;;24.40;62.80;;;;;;5098681;28;19916;-72
2022/06/15 12:19:05;;;;;;;;;;;24.50;63.20;;;;;;5104921;28;19916;-73
2022/06/15 12:21:37;;;;;;;;;;;24.50;63.00;;;;;;5096880;28;19935;-73
2022/06/15 12:24:11;;;;;;;;;;;24.60;63.20;;;;;;5100800;28;19915;-73
2022/06/15 12:26:41;;;;;;;;;;;24.70;63.00;;;;;;5114460;27;19985;-73
2022/06/15 12:29:12;;;;;;;;;;;24.80;63.20;;;;;;5104502;28;19908;-73
2022/06/15 12:31:47;;;;;;;;;;;24.80;63.30;;;;;;5101893;28;19916;-73
2022/06/15 12:34:16;;;;;;;;;;;25.00;63.20;;;;;;5096369;28;19912;-73
2022/06/15 12:36:47;;;;;;;;;;;25.00;63.10;;;;;;5101942;28;19939;-73
2022/06/15 12:39:18;;;;;;;;;;;25.10;63.30;;;;;;5105358;28;19911;-73
2022/06/15 12:44:31;;;;;;;;;;;25.20;62.60;;;;;;5105801;28;19919;-74
2022/06/15 12:46:57;;;;;;;;;;;25.30;62.70;;;;;;5100014;28;19915;-73
2022/06/15 12:49:34;;;;;;;;;;;25.30;62.70;;;;;;5106010;28;19954;-71
2022/06/15 12:52:07;;;;;;;;;;;25.40;62.50;;;;;;5097791;28;19920;-73
2022/06/15 12:54:34;;;;;;;;;;;25.50;62.50;;;;;;5098723;28;20628;-74
2022/06/15 12:57:03;;;;;;;;;;;25.50;62.70;;;;;;5098869;28;19921;-73
2022/06/15 12:59:28;;;;;;;;;;;25.60;62.50;;;;;;5103538;28;19911;-73
2022/06/15 13:01:54;;;;;;;;;;;25.70;62.10;;;;;;5100735;28;20681;-73
2022/06/15 13:04:32;;;;;;;;;;;25.70;62.00;;;;;;5105997;28;19918;-74
2022/06/15 13:07:18;;;;;;;;;;;25.80;62.00;;;;;;5099340;28;20014;-73
2022/06/15 13:10:03;;;;;;;;;;;25.90;61.80;;;;;;5101629;28;20413;-73
2022/06/15 13:12:50;;;;;;;;;;;25.90;61.70;;;;;;5101110;28;19923;-73
2022/06/15 13:15:18;;;;;;;;;;;26.00;61.40;;;;;;5099766;28;19908;-72
2022/06/15 13:18:08;;;;;;;;;;;26.00;61.50;;;;;;5100853;28;20516;-73
2022/06/15 13:20:53;;;;;;;;;;;26.10;61.50;;;;;;5099024;28;19980;-72
2022/06/15 13:23:22;;;;;;;;;;;26.20;61.60;;;;;;5094427;28;19927;-73
2022/06/15 13:26:08;;;;;;;;;;;26.20;61.50;;;;;;5100514;27;19923;-73
2022/06/15 13:28:39;;;;;;;;;;;26.30;61.40;;;;;;5096866;27;19949;-73
2022/06/15 13:31:09;;;;;;;;;;;26.40;61.60;;;;;;5102818;28;19947;-74
2022/06/15 13:33:48;;;;;;;;;;;26.40;61.50;;;;;;5093348;28;19919;-73
2022/06/15 13:36:14;;;;;;;;;;;26.50;61.30;;;;;;5102039;28;20661;-73
2022/06/15 13:38:41;;;;;;;;;;;26.50;61.10;;;;;;5092868;28;19916;-73
2022/06/15 13:41:09;;;;;;;;;;;26.50;60.90;;;;;;5100499;28;19911;-73
2022/06/15 13:43:43;;;;;;;;;;;26.60;60.80;;;;;;5098685;28;19931;-73
2022/06/15 13:46:27;;;;;;;;;;;26.70;60.60;;;;;;5103100;28;20006;-73
2022/06/15 13:49:01;;;;;;;;;;;26.80;60.40;;;;;;5097744;28;19916;-73
2022/06/15 13:51:27;;;;;;;;;;;26.90;60.50;;;;;;5103691;28;20629;-73
2022/06/15 13:53:59;;;;;;;;;;;26.90;60.40;;;;;;5098517;28;19916;-73
2022/06/15 13:56:24;;;;;;;;;;;27.00;60.30;;;;;;5103727;28;19915;-73
2022/06/15 13:59:08;;;;;;;;;;;27.10;59.90;;;;;;5096836;28;21113;-73
2022/06/15 14:01:53;;;;;;;;;;;27.10;59.80;;;;;;5103607;28;19920;-73
2022/06/15 14:04:21;;;;;;;;;;;27.20;60.00;;;;;;5097886;28;20346;-73
2022/06/15 14:07:05;;;;;;;;;;;27.30;59.90;;;;;;5103694;28;19908;-73
2022/06/15 14:09:40;;;;;;;;;;;27.30;59.80;;;;;;5098229;28;19915;-73
2022/06/15 14:12:27;;;;;;;;;;;27.30;60.00;;;;;;5103239;28;20592;-73
2022/06/15 14:14:53;;;;;;;;;;;27.40;59.90;;;;;;5096410;28;19916;-73
2022/06/15 14:17:27;;;;;;;;;;;27.50;60.00;;;;;;5100383;28;19923;-73
2022/06/15 14:19:59;;;;;;;;;;;27.50;59.20;;;;;;5095327;28;20010;-73
2022/06/15 14:22:25;;;;;;;;;;;27.50;58.70;;;;;;5100563;28;19924;-73
2022/06/15 14:25:01;;;;;;;;;;;27.60;58.60;;;;;;5092751;28;19984;-73
2022/06/15 14:27:29;;;;;;;;;;;27.70;58.50;;;;;;5101072;28;19962;-73
2022/06/15 14:29:55;;;;;;;;;;;27.70;58.40;;;;;;5098912;28;19946;-73
2022/06/15 14:32:25;;;;;;;;;;;27.80;58.10;;;;;;5099618;28;19919;-72
2022/06/15 14:34:51;;;;;;;;;;;27.90;57.90;;;;;;5103379;28;20573;-73
2022/06/15 14:37:21;;;;;;;;;;;27.90;57.80;;;;;;5098885;28;19920;-73
2022/06/15 14:39:48;;;;;;;;;;;28.00;57.50;;;;;;5102987;28;19912;-73
2022/06/15 14:42:13;;;;;;;;;;;28.20;57.60;;;;;;5100139;28;19926;-73
2022/06/15 14:44:39;;;;;;;;;;;28.20;57.30;;;;;;5105593;28;19911;-73
2022/06/15 14:47:05;;;;;;;;;;;28.40;57.10;;;;;;5104273;28;20006;-73
2022/06/15 14:49:32;;;;;;;;;;;28.50;56.90;;;;;;5103394;28;19912;-72